| Date | Time | Temp. (oF) | Dew Point (oF) | Rel. Hum. (%) | Press. (in.) | Wind Dir. | Wind Speed (mph) | Hourly Rainfall (in.) |
|
|---|---|---|---|---|---|---|---|---|---|
| 1 | 12/18 | 00:00 | 24 | 22 | 95 | 30.53 | SSW | 2 | 0.00 |
| 2 | 12/17 | 23:00 | 25 | 22 | 91 | 30.53 | NNW | 0 | 0.00 |
| 3 | 12/17 | 22:00 | 26 | 23 | 89 | 30.52 | SW | 0 | 0.00 |
| 4 | 12/17 | 21:00 | 26 | 22 | 85 | 30.51 | ENE | 0 | 0.00 |
| 5 | 12/17 | 20:00 | 28 | 23 | 82 | 30.52 | ENE | 0 | 0.00 |
| 6 | 12/17 | 19:00 | 30 | 23 | 76 | 30.52 | W | 2 | 0.00 |
| 7 | 12/17 | 18:00 | 32 | 23 | 72 | 30.52 | W | 3 | 0.00 |
| 8 | 12/17 | 17:00 | 35 | 25 | 67 | 30.51 | WSW | 3 | 0.00 |
| 9 | 12/17 | 16:00 | 37 | 25 | 63 | 30.48 | WNW | 1 | 0.00 |
| 10 | 12/17 | 15:00 | 38 | 24 | 58 | 30.47 | S | 5 | 0.00 |
| 11 | 12/17 | 14:00 | 38 | 25 | 60 | 30.45 | WNW | 2 | 0.00 |
| 12 | 12/17 | 13:00 | 40 | 26 | 59 | 30.46 | WSW | 8 | 0.00 |
| 13 | 12/17 | 12:00 | 39 | 27 | 62 | 30.47 | SSW | 6 | 0.00 |
| 14 | 12/17 | 11:00 | 38 | 26 | 64 | 30.49 | WSW | 12 | 0.00 |
| 15 | 12/17 | 10:00 | 34 | 26 | 74 | 30.49 | S | 5 | 0.00 |
| 16 | 12/17 | 09:00 | 30 | 24 | 81 | 30.46 | S | 3 | 0.00 |
| 17 | 12/17 | 08:00 | 26 | 23 | 89 | 30.43 | SSW | 1 | 0.00 |
| 18 | 12/17 | 07:00 | 26 | 22 | 87 | 30.40 | SW | 0 | 0.00 |
| 19 | 12/17 | 06:00 | 27 | 23 | 85 | 30.38 | SW | 1 | 0.00 |
| 20 | 12/17 | 05:00 | 27 | 21 | 80 | 30.35 | SW | 1 | 0.00 |
| 21 | 12/17 | 04:00 | 28 | 21 | 77 | 30.33 | SW | 0 | 0.00 |
| 22 | 12/17 | 03:00 | 29 | 21 | 74 | 30.31 | SW | 2 | 0.00 |
| 23 | 12/17 | 02:00 | 30 | 22 | 72 | 30.29 | SW | 2 | 0.00 |
| 24 | 12/17 | 01:00 | 31 | 22 | 71 | 30.26 | S | 3 | 0.00 |